• Join FlightAware (Why Join?)
  • Login
  • US Flag 
11:43AM EDT


 

Airport Tracker/Info


-or-


 

Live Flight TrackerFlight Track Log ✈ UAL5904 ✈ 01-Mar-2014 ✈ KCMH - KORD

Flight Track Log - Related Links

Times and Time Zones

All times are in EST time to prevent confusion due to time zone crossing. See the UAL5904 flight status page for this flight to view local times or setup timezone preferences in your user account.

Time Position Orientation Groundspeed Altitude Reporting Facility
EST Latitude Longitude Course Direction KTS MPH feet Rate Location/Type
10:56AM 40.0064 -82.9544 275° West 146 168 3,000  Level Indianapolis Center
10:56AM 40.0081 -82.9733 277° West 162 186 3,500 1,800 Climbing Indianapolis Center
10:57AM 40.0133 -83.0536 275° West 197 227 5,400 2,160 Climbing Indianapolis Center
10:58AM 40.0633 -83.1832 285° West  Level FlightAware Approximate
10:58AM 40.0331 -83.1367 287° West 242 278 7,900  Level Indianapolis Center
10:59AM 40.0889 -83.2833 294° West  Level FlightAware Approximate
10:59AM 40.0547 -83.2175 289° West 240 276 10,100  Level Indianapolis Center
11:00AM 40.1202 -83.3818 287° West  Level FlightAware Approximate
11:00AM 40.0803 -83.3089 290° West 260 299 11,200  Level Indianapolis Center
11:01AM 40.1250 -83.4039 302° West 301 346 12,300 1,140 Climbing Indianapolis Center
11:02AM 40.1728 -83.5019 303° West 318 366 13,600 1,380 Climbing Indianapolis Center
11:03AM 40.2322 -83.6219 303° West 326 375 15,200 1,440 Climbing Indianapolis Center
11:04AM 40.2814 -83.7236 302° West 327 376 16,600 1,320 Climbing Indianapolis Center
11:05AM 40.3297 -83.8225 303° West 327 376 17,900 1,320 Climbing Indianapolis Center
11:06AM 40.3775 -83.9211 302° West 326 375 19,300 1,320 Climbing Indianapolis Center
11:07AM 40.4253 -84.0189 303° West 323 372 20,700 1,320 Climbing Indianapolis Center
11:08AM 40.4736 -84.1200 302° West 323 372 22,100 1,320 Climbing Indianapolis Center
11:09AM 40.5208 -84.2167 303° West 321 369 23,500 1,380 Climbing Indianapolis Center
11:10AM 40.5667 -84.3136 302° West 318 366 25,000 1,200 Climbing Indianapolis Center
11:11AM 40.6200 -84.4267 302° West 307 353 26,000 480 Climbing Indianapolis Center
11:12AM 40.6681 -84.5272 302° West 318 366 26,000  Level Indianapolis Center
11:13AM 40.7194 -84.6336 303° West 337 388 26,000  Level Indianapolis Center
11:14AM 40.7658 -84.7303 302° West 347 399 26,000  Level Chicago Center
11:15AM 40.8183 -84.8425 302° West 356 410 26,000  Level Chicago Center
11:16AM 40.8642 -84.9597 297° West 359 413 26,000  Level Chicago Center
11:17AM 40.9114 -85.0781 298° West 362 417 26,000  Level Chicago Center
11:18AM 40.9569 -85.1956 297° West 361 415 26,000  Level Chicago Center
11:19AM 41.0144 -85.3389 298° West 365 420 26,000 -420 Level Chicago Center
11:21AM 41.0614 -85.4597 297° West 368 423 25,200 -540 Descending Chicago Center
11:22AM 41.1081 -85.5808 297° West 368 423 25,000 -120 Descending Chicago Center
11:23AM 41.1553 -85.7025 297° West 368 423 25,000  Level Chicago Center
11:24AM 41.2025 -85.8217 298° West 366 421 25,000 -60 Level Chicago Center
11:25AM 41.2464 -85.9403 296° West 357 411 24,900 -540 Descending Chicago Center
11:26AM 41.2861 -86.0572 294° West 347 399 24,000 -1,440 Descending Chicago Center
11:28AM 41.3636 -86.2869 294° West 346 398 20,600 -1,920 Descending Chicago Center
11:29AM 41.4328 -86.4056 308° West 338 389 18,200 -2,160 Descending Chicago Center
11:30AM 41.4892 -86.5031 308° West 334 384 16,200 -1,980 Descending Chicago Center
11:31AM 41.5408 -86.5922 308° West 308 354 14,200 -1,740 Descending Chicago Center
11:32AM 41.5914 -86.6808 307° West 301 346 12,700 -1,080 Descending Chicago Center
11:33AM 41.6531 -86.7808 310° West 319 367 12,000 -360 Descending Chicago Center
11:34AM 41.7447 -86.8050 349° North 338 389 12,000  Level Chicago Center
11:35AM 41.8456 -86.8261 351° North 342 394 12,000 -540 Level Chicago Center
11:36AM 41.8953 -86.9153 307° West 313 360 11,000 -1,020 Descending Chicago Center
11:37AM 41.9233 -87.0231 289° West 307 353 10,000 -840 Descending Chicago Center
11:38AM 41.9489 -87.1208 289° West 253 291 9,400 -1,020 Descending Chicago Center
11:39AM 41.9639 -87.2044 284° West 233 268 8,000 -1,200 Descending Chicago Center
11:40AM 41.9647 -87.2867 271° West 206 237 7,000 -540 Descending Chicago Center
11:41AM 41.9653 -87.3603 271° West 199 229 7,000  Level Chicago Center
11:42AM 41.9647 -87.4347 269° West 200 230 7,000 -240 Level Chicago Center
11:43AM 41.9656 -87.5131 271° West 195 224 6,600 -840 Descending Chicago Center
11:44AM 41.9650 -87.5894 269° West 203 234 5,300 -1,080 Descending Chicago Center
11:45AM 41.9656 -87.6550 271° West 180 207 4,400 -1,080 Descending Chicago Center
11:46AM 41.9647 -87.7278 269° West 182 209 3,200 -1,140 Descending Chicago Center
11:47AM 41.9653 -87.7958 271° West 183 211 2,100 -900 Descending Chicago Center
11:48AM 41.9650 -87.8458 270° West 139 160 1,400 -720 Descending Chicago Center
11:49AM 41.9650 -87.8883 270° West 136 157 700 -720 Descending Chicago Center